Time;durP1;ratioP1;P1;durP2;ratioP2;P2;SDS_P1;SDS_P2;PMS_P1;PMS_P2;Temp;Humidity;BMP_temperature;BMP_pressure;BME280_temperature;BME280_humidity;BME280_pressure;Samples;Min_cycle;Max_cycle;Signal;HPM_P1;HPM_P2
2021/12/19 00:01:08;;;;;;;39.72;21.15;;;;;;;;;;4935956;29;20020;-63
2021/12/19 00:03:53;;;;;;;41.58;21.20;;;;;;;;;;4936105;29;20028;-63
2021/12/19 00:09:04;;;;;;;37.55;20.27;;;;;;;;;;4935821;29;20058;-63
2021/12/19 00:11:31;;;;;;;39.22;21.58;;;;;;;;;;4935908;29;20032;-62
2021/12/19 00:13:57;;;;;;;36.35;20.77;;;;;;;;;;4936047;29;20411;-62
2021/12/19 00:16:24;;;;;;;36.42;20.77;;;;;;;;;;4935520;29;20391;-61
2021/12/19 00:18:52;;;;;;;39.35;20.95;;;;;;;;;;4935516;29;20474;-62
2021/12/19 00:21:18;;;;;;;36.67;21.67;;;;;;;;;;4935350;29;20032;-62
2021/12/19 00:23:46;;;;;;;40.08;21.17;;;;;;;;;;4935330;29;20058;-63
2021/12/19 00:26:12;;;;;;;39.13;21.80;;;;;;;;;;4935428;29;20024;-63
2021/12/19 00:28:39;;;;;;;43.92;23.75;;;;;;;;;;4935385;29;20074;-62
2021/12/19 00:31:05;;;;;;;38.50;22.58;;;;;;;;;;4935148;29;20103;-62
2021/12/19 00:33:31;;;;;;;42.15;23.10;;;;;;;;;;4935413;29;20043;-63
2021/12/19 00:35:57;;;;;;;41.30;22.98;;;;;;;;;;4935639;29;20377;-62
2021/12/19 00:38:24;;;;;;;39.97;23.13;;;;;;;;;;4935312;29;20106;-63
2021/12/19 00:40:50;;;;;;;41.55;23.25;;;;;;;;;;4935268;29;20028;-62
2021/12/19 00:43:35;;;;;;;39.72;22.67;;;;;;;;;;4935334;29;20035;-62
2021/12/19 00:46:06;;;;;;;39.70;22.92;;;;;;;;;;4935293;29;20091;-63
2021/12/19 00:48:32;;;;;;;40.13;22.37;;;;;;;;;;4935665;29;20031;-62
2021/12/19 00:50:59;;;;;;;38.97;22.73;;;;;;;;;;4935579;29;20032;-62
2021/12/19 00:53:25;;;;;;;40.33;22.42;;;;;;;;;;4935163;29;20023;-62
2021/12/19 00:55:51;;;;;;;35.55;21.77;;;;;;;;;;4918569;29;20385;-62
2021/12/19 00:58:17;;;;;;;38.67;21.75;;;;;;;;;;4935614;29;20483;-62
2021/12/19 01:00:43;;;;;;;40.55;21.95;;;;;;;;;;4933969;29;20390;-62
2021/12/19 01:03:09;;;;;;;41.25;22.55;;;;;;;;;;4934123;29;20055;-62
2021/12/19 01:05:37;;;;;;;36.38;20.65;;;;;;;;;;4935064;29;20447;-62
2021/12/19 01:08:04;;;;;;;35.30;21.45;;;;;;;;;;4934428;29;20032;-62
2021/12/19 01:10:30;;;;;;;36.88;21.45;;;;;;;;;;4934134;29;20024;-63
2021/12/19 01:12:56;;;;;;;39.83;21.25;;;;;;;;;;4935063;29;20063;-63
2021/12/19 01:15:23;;;;;;;35.95;20.23;;;;;;;;;;4935029;29;20042;-63
2021/12/19 01:17:49;;;;;;;34.92;20.40;;;;;;;;;;4934867;29;20079;-63
2021/12/19 01:20:20;;;;;;;33.60;20.02;;;;;;;;;;4934895;29;20055;-63
2021/12/19 01:22:47;;;;;;;37.80;20.02;;;;;;;;;;4934162;29;20048;-62
2021/12/19 01:25:14;;;;;;;33.80;19.42;;;;;;;;;;4934711;29;20067;-62
2021/12/19 01:27:40;;;;;;;37.28;20.30;;;;;;;;;;4934884;29;20078;-62
2021/12/19 01:30:07;;;;;;;32.03;19.08;;;;;;;;;;4935036;29;20396;-62
2021/12/19 01:32:33;;;;;;;33.72;18.77;;;;;;;;;;4933214;29;20075;-62
2021/12/19 01:35:00;;;;;;;33.97;19.08;;;;;;;;;;4934717;29;20050;-62
2021/12/19 01:37:26;;;;;;;36.28;18.73;;;;;;;;;;4934666;29;20062;-62
2021/12/19 01:39:52;;;;;;;33.47;18.08;;;;;;;;;;4934545;29;20064;-62
2021/12/19 01:42:20;;;;;;;33.92;18.05;;;;;;;;;;4934493;29;20027;-63
2021/12/19 01:44:46;;;;;;;36.50;19.20;;;;;;;;;;4934759;29;20055;-63
2021/12/19 01:47:13;;;;;;;32.72;17.08;;;;;;;;;;4934504;29;20031;-62
2021/12/19 01:49:40;;;;;;;32.33;18.15;;;;;;;;;;4934610;29;20106;-62
2021/12/19 01:52:09;;;;;;;30.67;16.92;;;;;;;;;;4934104;29;20048;-63
2021/12/19 01:54:35;;;;;;;30.00;16.70;;;;;;;;;;4933619;29;20043;-62
2021/12/19 01:57:01;;;;;;;30.50;17.25;;;;;;;;;;4934203;29;20035;-62
2021/12/19 01:59:27;;;;;;;28.48;16.60;;;;;;;;;;4934343;29;20540;-63
2021/12/19 02:01:55;;;;;;;27.48;16.83;;;;;;;;;;4934207;29;20392;-62
2021/12/19 02:04:21;;;;;;;35.47;17.25;;;;;;;;;;4933993;29;20030;-62
2021/12/19 02:06:48;;;;;;;30.13;17.25;;;;;;;;;;4934164;29;20024;-63
2021/12/19 02:09:14;;;;;;;30.20;16.23;;;;;;;;;;4933898;29;20034;-63
2021/12/19 02:11:41;;;;;;;32.30;16.83;;;;;;;;;;4934289;29;20106;-63
2021/12/19 02:14:08;;;;;;;30.48;16.80;;;;;;;;;;4933562;29;20051;-63
2021/12/19 02:16:36;;;;;;;28.27;16.58;;;;;;;;;;4933987;29;20034;-62
2021/12/19 02:19:03;;;;;;;31.23;16.80;;;;;;;;;;4934164;29;20035;-62
2021/12/19 02:21:29;;;;;;;25.55;15.18;;;;;;;;;;4933117;29;20055;-63
2021/12/19 02:23:59;;;;;;;29.30;16.70;;;;;;;;;;4934030;29;20035;-63
2021/12/19 02:26:25;;;;;;;28.67;15.25;;;;;;;;;;4933598;29;20045;-62
2021/12/19 02:28:51;;;;;;;30.17;15.38;;;;;;;;;;4933545;29;20047;-62
2021/12/19 02:31:20;;;;;;;29.58;14.60;;;;;;;;;;4933754;29;20031;-63
2021/12/19 02:33:59;;;;;;;24.52;13.90;;;;;;;;;;4933710;29;20596;-63
2021/12/19 02:39:45;;;;;;;25.92;14.07;;;;;;;;;;4893398;29;20037;-61
2021/12/19 02:50:17;;;;;;;26.50;13.60;;;;;;;;;;4893752;29;20654;-61
2021/12/19 02:52:44;;;;;;;24.67;12.77;;;;;;;;;;4893292;29;20033;-61
2021/12/19 02:55:10;;;;;;;23.83;12.23;;;;;;;;;;4893392;29;20096;-61
2021/12/19 02:57:38;;;;;;;25.63;13.10;;;;;;;;;;4893472;29;20048;-63
2021/12/19 03:00:08;;;;;;;23.55;13.07;;;;;;;;;;4893328;29;20071;-61
2021/12/19 03:02:34;;;;;;;22.63;12.65;;;;;;;;;;4895064;29;20060;-61
2021/12/19 03:05:01;;;;;;;24.20;12.80;;;;;;;;;;4894815;29;20036;-61
2021/12/19 03:07:29;;;;;;;21.83;12.60;;;;;;;;;;4893545;29;20037;-61
2021/12/19 03:10:03;;;;;;;22.67;12.32;;;;;;;;;;4892795;29;20040;-60
2021/12/19 03:18:00;;;;;;;20.05;11.90;;;;;;;;;;4933897;29;20035;-63
2021/12/19 03:20:28;;;;;;;21.88;12.30;;;;;;;;;;4933166;29;20024;-63
2021/12/19 03:22:54;;;;;;;22.65;12.63;;;;;;;;;;4933317;29;20059;-63
2021/12/19 03:25:20;;;;;;;21.35;12.02;;;;;;;;;;4933447;29;20411;-62
2021/12/19 03:27:46;;;;;;;24.55;13.07;;;;;;;;;;4931866;29;20095;-62
2021/12/19 03:30:12;;;;;;;20.88;11.32;;;;;;;;;;4933033;29;20487;-61
2021/12/19 03:32:39;;;;;;;22.38;12.35;;;;;;;;;;4933877;29;20031;-62
2021/12/19 03:35:06;;;;;;;23.33;12.93;;;;;;;;;;4936640;29;20601;-62
2021/12/19 03:37:32;;;;;;;23.05;11.95;;;;;;;;;;4936977;29;20101;-60
2021/12/19 03:40:09;;;;;;;22.27;12.25;;;;;;;;;;4936659;29;20032;-63
2021/12/19 03:42:36;;;;;;;23.80;13.05;;;;;;;;;;4935648;29;20467;-63
2021/12/19 03:45:03;;;;;;;23.40;12.55;;;;;;;;;;4936663;29;20024;-62
2021/12/19 03:47:29;;;;;;;21.23;11.90;;;;;;;;;;4936892;29;20133;-61
2021/12/19 03:49:55;;;;;;;23.52;12.90;;;;;;;;;;4936766;29;20024;-64
2021/12/19 03:52:21;;;;;;;22.83;12.02;;;;;;;;;;4936542;29;20468;-61
2021/12/19 03:54:47;;;;;;;27.75;14.68;;;;;;;;;;4936568;29;20039;-61
2021/12/19 03:57:13;;;;;;;25.02;13.30;;;;;;;;;;4936137;29;20020;-60
2021/12/19 03:59:41;;;;;;;22.92;12.55;;;;;;;;;;4936493;29;20028;-63
2021/12/19 04:02:07;;;;;;;22.23;12.43;;;;;;;;;;4936425;29;20027;-62
2021/12/19 04:04:37;;;;;;;24.85;12.30;;;;;;;;;;4936261;29;20040;-63
2021/12/19 04:07:05;;;;;;;20.17;11.88;;;;;;;;;;4935884;29;20030;-63
2021/12/19 04:09:31;;;;;;;23.33;12.52;;;;;;;;;;4936442;29;20087;-63
2021/12/19 04:11:58;;;;;;;21.52;12.25;;;;;;;;;;4936383;29;20028;-63
2021/12/19 04:14:24;;;;;;;23.92;12.65;;;;;;;;;;4936254;29;20040;-63
2021/12/19 04:16:50;;;;;;;21.98;12.63;;;;;;;;;;4935751;29;20111;-63
2021/12/19 04:19:20;;;;;;;24.08;12.50;;;;;;;;;;4936080;29;20036;-62
2021/12/19 04:21:46;;;;;;;22.80;12.85;;;;;;;;;;4935676;29;20047;-63
2021/12/19 04:24:12;;;;;;;23.20;12.38;;;;;;;;;;4934605;29;20036;-62
2021/12/19 04:26:38;;;;;;;26.95;13.07;;;;;;;;;;4935774;29;20036;-63
2021/12/19 04:29:04;;;;;;;23.35;13.75;;;;;;;;;;4935762;29;20036;-63
2021/12/19 04:31:30;;;;;;;33.90;16.02;;;;;;;;;;4935770;29;20388;-63
2021/12/19 04:33:57;;;;;;;25.85;13.40;;;;;;;;;;4936064;29;20088;-63
2021/12/19 04:36:28;;;;;;;22.23;12.93;;;;;;;;;;4935559;29;20107;-62
2021/12/19 04:39:19;;;;;;;27.15;13.05;;;;;;;;;;4936035;29;20051;-63
2021/12/19 04:52:57;;;;;;;30.55;14.50;;;;;;;;;;4935328;29;20047;-62
2021/12/19 04:58:50;;;;;;;27.02;13.30;;;;;;;;;;4935564;29;20035;-62
2021/12/19 05:14:10;;;;;;;22.88;12.68;;;;;;;;;;4935075;29;20537;-63
2021/12/19 05:16:38;;;;;;;22.05;13.40;;;;;;;;;;4935217;29;20023;-61
2021/12/19 05:19:20;;;;;;;20.73;12.40;;;;;;;;;;4935194;29;20019;-61
2021/12/19 05:21:47;;;;;;;25.20;12.43;;;;;;;;;;4934898;29;20074;-63
2021/12/19 05:24:45;;;;;;;19.90;12.15;;;;;;;;;;4934900;29;20063;-62
2021/12/19 05:27:05;;;;;;;18.03;9.47;;;;;;;;;;4934416;29;20119;-61
2021/12/19 05:29:32;;;;;;;21.77;12.05;;;;;;;;;;4934878;29;20266;-62
2021/12/19 05:31:58;;;;;;;27.45;13.45;;;;;;;;;;4934764;29;20026;-61
2021/12/19 05:34:25;;;;;;;25.52;12.50;;;;;;;;;;4934588;29;20532;-61
2021/12/19 05:47:31;;;;;;;20.42;11.73;;;;;;;;;;4934268;29;20049;-62
2021/12/19 05:49:57;;;;;;;20.95;11.57;;;;;;;;;;4934277;29;20079;-61
2021/12/19 05:52:23;;;;;;;18.23;11.27;;;;;;;;;;4933903;29;20083;-62
2021/12/19 05:54:49;;;;;;;18.92;11.30;;;;;;;;;;4934216;29;20039;-62
2021/12/19 05:57:15;;;;;;;23.48;11.93;;;;;;;;;;4932251;29;20067;-61
2021/12/19 05:59:41;;;;;;;22.77;11.68;;;;;;;;;;4934243;29;20031;-61
2021/12/19 06:02:07;;;;;;;23.80;11.80;;;;;;;;;;4933987;29;20027;-61
2021/12/19 06:04:33;;;;;;;20.67;11.68;;;;;;;;;;4933993;29;20034;-62
2021/12/19 06:06:59;;;;;;;21.02;11.95;;;;;;;;;;4934410;29;20031;-62
2021/12/19 06:09:25;;;;;;;20.10;11.00;;;;;;;;;;4934475;29;20040;-61
2021/12/19 06:11:51;;;;;;;21.75;12.23;;;;;;;;;;4934362;29;20059;-62
2021/12/19 06:14:17;;;;;;;24.95;12.25;;;;;;;;;;4933706;29;20070;-62
2021/12/19 06:16:43;;;;;;;23.33;12.02;;;;;;;;;;4933875;29;20023;-62
2021/12/19 06:19:09;;;;;;;21.20;11.43;;;;;;;;;;4934247;29;20063;-61
2021/12/19 06:21:35;;;;;;;27.05;12.70;;;;;;;;;;4933710;29;20044;-62
2021/12/19 06:24:01;;;;;;;26.50;13.85;;;;;;;;;;4932431;29;20405;-62
2021/12/19 06:26:27;;;;;;;20.73;12.00;;;;;;;;;;4933610;29;20485;-62
2021/12/19 06:28:53;;;;;;;24.35;12.45;;;;;;;;;;4933984;29;20031;-62
2021/12/19 06:31:20;;;;;;;21.42;11.68;;;;;;;;;;4934135;29;20035;-61
2021/12/19 06:33:46;;;;;;;22.88;11.57;;;;;;;;;;4933983;29;20048;-62
2021/12/19 06:36:12;;;;;;;23.58;12.82;;;;;;;;;;4933654;29;20051;-61
2021/12/19 06:38:38;;;;;;;24.60;12.93;;;;;;;;;;4934053;29;20108;-62
2021/12/19 06:41:04;;;;;;;20.35;11.77;;;;;;;;;;4933663;29;20091;-62
2021/12/19 06:43:32;;;;;;;28.88;15.90;;;;;;;;;;4933926;29;20031;-62
2021/12/19 06:45:58;;;;;;;19.27;12.05;;;;;;;;;;4933816;29;20019;-62
2021/12/19 06:48:25;;;;;;;19.35;12.02;;;;;;;;;;4933693;29;20020;-62
2021/12/19 06:50:52;;;;;;;25.25;12.43;;;;;;;;;;4933727;29;20483;-62
2021/12/19 06:53:18;;;;;;;24.13;13.05;;;;;;;;;;4933729;29;20058;-62
2021/12/19 06:55:44;;;;;;;21.48;11.95;;;;;;;;;;4933694;29;20103;-62
2021/12/19 06:58:10;;;;;;;22.50;12.10;;;;;;;;;;4933367;29;20028;-61
2021/12/19 07:00:36;;;;;;;23.80;12.55;;;;;;;;;;4933732;29;20032;-61
2021/12/19 07:03:02;;;;;;;20.40;11.95;;;;;;;;;;4933327;29;20039;-62
2021/12/19 07:05:28;;;;;;;21.88;12.73;;;;;;;;;;4933823;29;20476;-61
2021/12/19 07:07:54;;;;;;;23.13;13.02;;;;;;;;;;4934524;29;20480;-61
2021/12/19 07:10:23;;;;;;;23.92;12.23;;;;;;;;;;4937040;29;20483;-61
2021/12/19 07:12:49;;;;;;;32.35;17.60;;;;;;;;;;4937095;29;20032;-61
2021/12/19 07:15:17;;;;;;;28.20;14.65;;;;;;;;;;4937005;29;20040;-62
2021/12/19 07:17:43;;;;;;;23.17;13.52;;;;;;;;;;4936697;29;20023;-62
2021/12/19 07:20:10;;;;;;;23.73;12.38;;;;;;;;;;4937224;29;20024;-61
2021/12/19 07:22:36;;;;;;;22.98;13.05;;;;;;;;;;4936844;29;20047;-61
2021/12/19 07:25:02;;;;;;;23.52;13.55;;;;;;;;;;4936791;29;20028;-62
2021/12/19 07:27:28;;;;;;;24.88;12.65;;;;;;;;;;4936980;29;20035;-62
2021/12/19 07:29:56;;;;;;;23.55;12.90;;;;;;;;;;4937074;29;20365;-62
2021/12/19 07:32:23;;;;;;;25.50;13.50;;;;;;;;;;4936810;29;20483;-61
2021/12/19 07:34:50;;;;;;;24.98;13.73;;;;;;;;;;4936818;29;20071;-61
2021/12/19 07:37:18;;;;;;;24.40;12.73;;;;;;;;;;4936594;29;20107;-61
2021/12/19 07:40:09;;;;;;;25.73;14.75;;;;;;;;;;4936892;29;20023;-62
2021/12/19 07:42:35;;;;;;;24.27;13.32;;;;;;;;;;4936802;29;20024;-61
2021/12/19 07:45:01;;;;;;;24.98;14.77;;;;;;;;;;4936723;29;20059;-61
2021/12/19 07:47:27;;;;;;;23.80;13.80;;;;;;;;;;4936498;29;20030;-62
2021/12/19 07:49:53;;;;;;;25.60;12.73;;;;;;;;;;4936588;29;20031;-62
2021/12/19 07:52:19;;;;;;;23.85;13.27;;;;;;;;;;4935449;29;20042;-63
2021/12/19 07:54:45;;;;;;;25.88;13.80;;;;;;;;;;4935103;29;20046;-62
2021/12/19 07:57:11;;;;;;;23.63;12.60;;;;;;;;;;4935189;29;20027;-61
2021/12/19 07:59:37;;;;;;;21.67;12.32;;;;;;;;;;4934957;29;20107;-63
2021/12/19 08:02:04;;;;;;;22.33;12.70;;;;;;;;;;4934500;29;20024;-63
2021/12/19 08:04:31;;;;;;;22.60;12.20;;;;;;;;;;4936063;29;20551;-63
2021/12/19 08:06:57;;;;;;;21.63;12.77;;;;;;;;;;4935762;29;20110;-63
2021/12/19 08:09:35;;;;;;;21.55;12.55;;;;;;;;;;4936446;29;20039;-64
2021/12/19 08:12:03;;;;;;;23.10;12.52;;;;;;;;;;4935557;29;20031;-63
2021/12/19 08:14:29;;;;;;;23.35;12.95;;;;;;;;;;4936189;29;20076;-63
2021/12/19 08:16:55;;;;;;;20.95;12.80;;;;;;;;;;4936253;29;20059;-63
2021/12/19 08:19:21;;;;;;;21.17;13.30;;;;;;;;;;4935881;29;20031;-62
2021/12/19 08:21:47;;;;;;;22.98;13.45;;;;;;;;;;4935537;29;20071;-63
2021/12/19 08:24:14;;;;;;;22.92;12.98;;;;;;;;;;4935342;29;20035;-62
2021/12/19 08:26:41;;;;;;;22.10;12.38;;;;;;;;;;4935590;29;20023;-62
2021/12/19 08:29:08;;;;;;;22.33;11.90;;;;;;;;;;4935676;29;20050;-63
2021/12/19 08:31:34;;;;;;;19.05;11.68;;;;;;;;;;4935822;29;20028;-64
2021/12/19 08:34:00;;;;;;;22.27;12.45;;;;;;;;;;4935459;29;20119;-62
2021/12/19 08:36:27;;;;;;;21.17;11.98;;;;;;;;;;4935269;29;20024;-61
2021/12/19 08:38:53;;;;;;;23.50;13.07;;;;;;;;;;4935816;29;20051;-64
2021/12/19 08:41:19;;;;;;;19.67;11.57;;;;;;;;;;4935902;29;20110;-62
2021/12/19 08:43:46;;;;;;;22.75;11.65;;;;;;;;;;4935428;29;20038;-62
2021/12/19 08:46:12;;;;;;;24.33;12.63;;;;;;;;;;4934039;29;20023;-62
2021/12/19 08:48:41;;;;;;;24.38;12.95;;;;;;;;;;4934461;29;20028;-64
2021/12/19 08:51:07;;;;;;;21.13;12.18;;;;;;;;;;4934000;29;20047;-65
2021/12/19 08:53:33;;;;;;;23.48;12.18;;;;;;;;;;4934272;29;20031;-64
2021/12/19 08:56:00;;;;;;;23.90;13.60;;;;;;;;;;4931717;29;20032;-64
2021/12/19 08:58:28;;;;;;;26.50;12.50;;;;;;;;;;4935522;29;20471;-64
2021/12/19 09:00:58;;;;;;;22.45;12.55;;;;;;;;;;4934579;29;20031;-65
2021/12/19 09:03:24;;;;;;;29.58;15.77;;;;;;;;;;4933969;29;20028;-64
2021/12/19 09:05:50;;;;;;;24.25;13.05;;;;;;;;;;4934799;29;20535;-65
2021/12/19 09:08:16;;;;;;;26.77;13.48;;;;;;;;;;4935373;29;20036;-63
2021/12/19 09:10:43;;;;;;;24.00;12.88;;;;;;;;;;4935075;29;20065;-65
2021/12/19 09:13:10;;;;;;;23.10;12.32;;;;;;;;;;4934635;29;20042;-64
2021/12/19 09:15:36;;;;;;;22.15;12.50;;;;;;;;;;4934623;29;20046;-69
2021/12/19 09:18:02;;;;;;;25.83;12.57;;;;;;;;;;4934595;29;20071;-62
2021/12/19 09:20:28;;;;;;;21.65;12.48;;;;;;;;;;4934628;29;20032;-64
2021/12/19 09:22:54;;;;;;;22.40;11.70;;;;;;;;;;4934721;29;20107;-65
2021/12/19 09:25:20;;;;;;;22.20;12.85;;;;;;;;;;4934266;29;20024;-63
2021/12/19 09:27:47;;;;;;;20.73;12.70;;;;;;;;;;4934422;29;20023;-62
2021/12/19 09:30:13;;;;;;;19.38;11.52;;;;;;;;;;4933752;29;20380;-61
2021/12/19 09:32:40;;;;;;;24.50;12.50;;;;;;;;;;4934539;29;20073;-63
2021/12/19 09:35:06;;;;;;;22.17;12.63;;;;;;;;;;4934636;29;20452;-63
2021/12/19 09:37:35;;;;;;;19.90;12.23;;;;;;;;;;4934691;29;20047;-62
2021/12/19 09:40:03;;;;;;;22.17;12.65;;;;;;;;;;4934421;29;20104;-63
2021/12/19 09:42:34;;;;;;;24.73;12.75;;;;;;;;;;4934450;29;20024;-62
2021/12/19 09:45:01;;;;;;;21.00;11.80;;;;;;;;;;4934885;29;20055;-67
2021/12/19 09:47:27;;;;;;;22.35;11.90;;;;;;;;;;4934863;29;20380;-64
2021/12/19 09:49:54;;;;;;;21.15;12.15;;;;;;;;;;4934854;29;20032;-62
2021/12/19 09:52:20;;;;;;;21.65;12.23;;;;;;;;;;4934404;29;20032;-62
2021/12/19 09:54:46;;;;;;;19.05;11.27;;;;;;;;;;4934498;29;20040;-62
2021/12/19 09:57:12;;;;;;;28.95;12.90;;;;;;;;;;4934171;29;20078;-63
2021/12/19 09:59:38;;;;;;;21.58;11.90;;;;;;;;;;4934476;29;20472;-61
2021/12/19 10:02:05;;;;;;;21.05;12.05;;;;;;;;;;4934339;29;20151;-62
2021/12/19 10:04:33;;;;;;;21.63;12.88;;;;;;;;;;4934530;29;20038;-64
2021/12/19 10:07:08;;;;;;;23.85;12.52;;;;;;;;;;4934392;29;20032;-64
2021/12/19 10:09:37;;;;;;;21.40;12.27;;;;;;;;;;4934289;29;20114;-64
2021/12/19 10:15:04;;;;;;;22.45;13.40;;;;;;;;;;4934613;29;20055;-62
2021/12/19 10:17:30;;;;;;;22.23;12.80;;;;;;;;;;4934416;29;20425;-66
2021/12/19 10:20:03;;;;;;;26.40;13.65;;;;;;;;;;4934462;29;20027;-62
2021/12/19 10:22:33;;;;;;;24.35;12.38;;;;;;;;;;4933779;29;20171;-66
2021/12/19 10:25:11;;;;;;;22.60;13.77;;;;;;;;;;4934356;29;20479;-63
2021/12/19 10:27:37;;;;;;;23.33;13.63;;;;;;;;;;4933643;29;20034;-63
2021/12/19 10:30:04;;;;;;;23.42;14.10;;;;;;;;;;4934092;29;20025;-65
2021/12/19 10:32:31;;;;;;;27.23;14.18;;;;;;;;;;4933817;29;20107;-66
2021/12/19 10:35:13;;;;;;;24.33;15.25;;;;;;;;;;4933786;29;20095;-65
2021/12/19 10:37:39;;;;;;;25.30;14.20;;;;;;;;;;4933857;29;20023;-65
2021/12/19 10:40:06;;;;;;;24.65;14.55;;;;;;;;;;4934015;29;20027;-66
2021/12/19 10:42:43;;;;;;;24.77;14.27;;;;;;;;;;4933343;29;20071;-65
2021/12/19 10:48:08;;;;;;;24.20;14.95;;;;;;;;;;4933522;29;20071;-65
2021/12/19 10:50:51;;;;;;;21.90;13.13;;;;;;;;;;4933519;29;20039;-65
2021/12/19 10:53:17;;;;;;;30.52;16.40;;;;;;;;;;4933727;29;20432;-63
2021/12/19 10:55:46;;;;;;;24.70;13.65;;;;;;;;;;4933662;29;20095;-65
2021/12/19 10:58:23;;;;;;;21.13;13.07;;;;;;;;;;4933440;29;20106;-65
2021/12/19 11:01:10;;;;;;;22.75;13.35;;;;;;;;;;4933752;29;20045;-65
2021/12/19 11:03:38;;;;;;;25.30;13.40;;;;;;;;;;4933375;29;20028;-66
2021/12/19 11:06:15;;;;;;;18.60;11.70;;;;;;;;;;4933565;29;20104;-65
2021/12/19 11:08:42;;;;;;;26.05;14.30;;;;;;;;;;4933655;29;20091;-65
2021/12/19 11:11:09;;;;;;;32.08;16.33;;;;;;;;;;4933604;29;20032;-65
2021/12/19 11:13:35;;;;;;;26.67;15.10;;;;;;;;;;4933296;29;20031;-65
2021/12/19 11:16:01;;;;;;;29.77;14.55;;;;;;;;;;4933837;29;20036;-64
2021/12/19 11:18:27;;;;;;;25.17;13.95;;;;;;;;;;4933616;29;20038;-65
2021/12/19 11:20:53;;;;;;;21.38;13.40;;;;;;;;;;4933673;29;20051;-65
2021/12/19 11:23:19;;;;;;;24.48;14.77;;;;;;;;;;4933351;29;20470;-64
2021/12/19 11:25:45;;;;;;;23.13;13.05;;;;;;;;;;4933244;29;20039;-63
2021/12/19 11:28:12;;;;;;;21.33;11.90;;;;;;;;;;4933228;29;20521;-65
2021/12/19 11:30:38;;;;;;;23.83;12.02;;;;;;;;;;4933381;29;20040;-65
2021/12/19 11:33:35;;;;;;;21.08;12.57;;;;;;;;;;4933268;29;20545;-65
2021/12/19 11:36:01;;;;;;;20.65;11.75;;;;;;;;;;4933400;29;20095;-63
2021/12/19 11:38:29;;;;;;;21.92;12.55;;;;;;;;;;4933634;29;20051;-64
2021/12/19 11:40:55;;;;;;;19.83;11.75;;;;;;;;;;4933422;29;20102;-65
2021/12/19 11:43:21;;;;;;;19.85;11.73;;;;;;;;;;4933373;29;20132;-65
2021/12/19 11:45:58;;;;;;;21.45;11.20;;;;;;;;;;4933523;29;20095;-65
2021/12/19 11:48:29;;;;;;;19.52;11.95;;;;;;;;;;4933361;29;20028;-64
2021/12/19 11:50:59;;;;;;;23.23;11.27;;;;;;;;;;4933405;29;20845;-66
2021/12/19 11:53:31;;;;;;;21.70;12.00;;;;;;;;;;4933588;29;20106;-66
2021/12/19 11:55:58;;;;;;;20.33;12.25;;;;;;;;;;4936985;29;20062;-65
2021/12/19 11:58:29;;;;;;;20.58;11.60;;;;;;;;;;4936479;29;20101;-65
2021/12/19 12:01:04;;;;;;;20.35;12.20;;;;;;;;;;4936630;29;20485;-65
2021/12/19 12:03:30;;;;;;;18.10;10.68;;;;;;;;;;4936512;29;20062;-66
2021/12/19 12:06:16;;;;;;;15.55;9.32;;;;;;;;;;4936796;29;20059;-65
2021/12/19 12:09:01;;;;;;;16.35;10.63;;;;;;;;;;4929280;29;20047;-65
2021/12/19 12:11:27;;;;;;;202.43;82.47;;;;;;;;;;4936397;29;20043;-66
2021/12/19 12:13:53;;;;;;;80.45;34.63;;;;;;;;;;4936161;29;20063;-66
2021/12/19 12:16:33;;;;;;;35.08;15.88;;;;;;;;;;4936355;29;20480;-66
2021/12/19 12:19:01;;;;;;;48.05;20.35;;;;;;;;;;4936419;29;20118;-66
2021/12/19 12:21:30;;;;;;;31.27;15.13;;;;;;;;;;4935950;29;20095;-64
2021/12/19 12:24:04;;;;;;;20.70;10.95;;;;;;;;;;4935984;29;20026;-66
2021/12/19 12:26:34;;;;;;;23.75;11.50;;;;;;;;;;4935851;29;20108;-65
2021/12/19 12:29:00;;;;;;;27.05;13.68;;;;;;;;;;4936020;29;20055;-66
2021/12/19 12:31:27;;;;;;;23.48;12.02;;;;;;;;;;4936330;29;20429;-64
2021/12/19 12:33:53;;;;;;;23.38;11.85;;;;;;;;;;4935726;29;20027;-65
2021/12/19 12:36:20;;;;;;;19.42;10.25;;;;;;;;;;4935932;29;20027;-66
2021/12/19 12:38:50;;;;;;;18.70;9.45;;;;;;;;;;4936091;29;20076;-65
2021/12/19 12:41:28;;;;;;;16.48;8.43;;;;;;;;;;4935960;29;20063;-66
2021/12/19 12:43:55;;;;;;;14.80;7.88;;;;;;;;;;4935648;29;20124;-64
2021/12/19 12:46:22;;;;;;;15.30;8.43;;;;;;;;;;4936061;29;20031;-66
2021/12/19 12:48:54;;;;;;;12.75;7.53;;;;;;;;;;4936046;29;20028;-65
2021/12/19 12:51:20;;;;;;;;;;;;;;;;;;4936238;29;20047;-63
2021/12/19 12:53:48;;;;;;;12.48;7.15;;;;;;;;;;4935559;29;19910;-65
2021/12/19 12:56:18;;;;;;;13.10;7.68;;;;;;;;;;4935505;29;20388;-64
2021/12/19 12:58:46;;;;;;;16.63;8.18;;;;;;;;;;4935152;29;20024;-66
2021/12/19 13:01:19;;;;;;;14.27;7.72;;;;;;;;;;4935938;29;20039;-63
2021/12/19 13:04:03;;;;;;;16.17;9.40;;;;;;;;;;4935427;29;20023;-66
2021/12/19 13:06:49;;;;;;;16.77;9.05;;;;;;;;;;4935528;29;20031;-63
2021/12/19 13:09:18;;;;;;;16.23;8.57;;;;;;;;;;4935451;29;20035;-63
2021/12/19 13:11:46;;;;;;;18.95;9.73;;;;;;;;;;4935470;29;20055;-63
2021/12/19 13:14:20;;;;;;;13.90;8.15;;;;;;;;;;4935228;29;20448;-62
2021/12/19 13:16:47;;;;;;;15.43;8.43;;;;;;;;;;4935090;29;20024;-64
2021/12/19 13:19:32;;;;;;;15.85;8.18;;;;;;;;;;4935018;29;20069;-66
2021/12/19 13:21:58;;;;;;;16.48;8.98;;;;;;;;;;4933388;29;20066;-65
2021/12/19 13:24:24;;;;;;;13.52;8.50;;;;;;;;;;4935116;29;20106;-63
2021/12/19 13:27:10;;;;;;;15.57;8.77;;;;;;;;;;4934977;29;20028;-63
2021/12/19 13:29:38;;;;;;;15.65;9.00;;;;;;;;;;4934681;29;20055;-65
2021/12/19 13:32:20;;;;;;;19.60;10.38;;;;;;;;;;4934936;29;20054;-63
2021/12/19 13:34:46;;;;;;;;;;;;;;;;;;4935008;29;20083;-63
2021/12/19 13:37:12;;;;;;;19.35;10.93;;;;;;;;;;4934402;29;20323;-61
2021/12/19 13:39:38;;;;;;;19.95;10.73;;;;;;;;;;4934763;29;20087;-62
2021/12/19 13:42:12;;;;;;;17.33;9.95;;;;;;;;;;4934627;29;20499;-63
2021/12/19 13:44:39;;;;;;;19.77;11.27;;;;;;;;;;4934564;29;20046;-62
2021/12/19 13:47:12;;;;;;;22.27;11.63;;;;;;;;;;4934576;29;20028;-65
2021/12/19 13:49:38;;;;;;;20.38;10.25;;;;;;;;;;4934639;29;20024;-61
2021/12/19 13:52:05;;;;;;;20.92;12.00;;;;;;;;;;4934217;29;20047;-65
2021/12/19 13:54:34;;;;;;;18.67;12.05;;;;;;;;;;4934467;29;20050;-64
2021/12/19 13:57:00;;;;;;;20.30;10.95;;;;;;;;;;4934380;29;20067;-64
2021/12/19 13:59:27;;;;;;;20.73;11.80;;;;;;;;;;4934407;29;20085;-61
2021/12/19 14:01:54;;;;;;;19.52;10.23;;;;;;;;;;4934374;29;20024;-64
2021/12/19 14:04:22;;;;;;;16.85;10.88;;;;;;;;;;4934253;29;20027;-64
2021/12/19 14:06:50;;;;;;;18.23;10.27;;;;;;;;;;4934558;29;20552;-65
2021/12/19 14:09:16;;;;;;;18.60;11.25;;;;;;;;;;4934432;29;20027;-61
2021/12/19 14:11:44;;;;;;;21.60;11.50;;;;;;;;;;4934391;29;20095;-63
2021/12/19 14:14:13;;;;;;;22.13;12.85;;;;;;;;;;4934014;29;20076;-62
2021/12/19 14:16:43;;;;;;;19.15;11.55;;;;;;;;;;4933789;29;20031;-65
2021/12/19 14:19:22;;;;;;;21.98;11.68;;;;;;;;;;4932621;29;20031;-63
2021/12/19 14:21:48;;;;;;;22.70;13.27;;;;;;;;;;4932112;29;20071;-63
2021/12/19 14:24:15;;;;;;;18.23;11.13;;;;;;;;;;4933765;29;20030;-64
2021/12/19 14:26:42;;;;;;;23.58;12.23;;;;;;;;;;4934045;29;20066;-65
2021/12/19 14:29:24;;;;;;;20.67;10.48;;;;;;;;;;4934142;29;20391;-63
2021/12/19 14:31:50;;;;;;;;;;;;;;;;;;4934226;29;20030;-61
2021/12/19 14:34:35;;;;;;;31.08;14.98;;;;;;;;;;4933697;29;20001;-63
2021/12/19 14:37:16;;;;;;;19.42;11.27;;;;;;;;;;4933874;29;20028;-63
2021/12/19 14:39:42;;;;;;;22.67;11.90;;;;;;;;;;4933929;29;20042;-64
2021/12/19 14:42:08;;;;;;;32.25;15.23;;;;;;;;;;4933579;29;20024;-64
2021/12/19 14:44:34;;;;;;;28.35;14.57;;;;;;;;;;4932550;29;20031;-65
2021/12/19 14:47:00;;;;;;;20.52;11.82;;;;;;;;;;4934049;29;20095;-64
2021/12/19 14:49:36;;;;;;;22.13;10.65;;;;;;;;;;4933975;29;20043;-63
2021/12/19 14:52:02;;;;;;;19.60;10.52;;;;;;;;;;4933964;29;20071;-64
2021/12/19 14:54:28;;;;;;;19.38;11.75;;;;;;;;;;4933978;29;20043;-64
2021/12/19 14:56:57;;;;;;;24.73;12.52;;;;;;;;;;4933767;29;20028;-65
2021/12/19 14:59:27;;;;;;;27.23;13.32;;;;;;;;;;4933879;29;20039;-64
2021/12/19 15:01:54;;;;;;;23.42;12.43;;;;;;;;;;4934003;29;20028;-64
2021/12/19 15:04:23;;;;;;;20.98;11.32;;;;;;;;;;4933973;29;20028;-64
2021/12/19 15:06:57;;;;;;;17.10;10.60;;;;;;;;;;4933522;29;20023;-65
2021/12/19 15:09:24;;;;;;;20.23;10.98;;;;;;;;;;4933865;29;20015;-64
2021/12/19 15:11:50;;;;;;;23.27;10.80;;;;;;;;;;4933677;29;20387;-65
2021/12/19 15:14:17;;;;;;;19.63;10.88;;;;;;;;;;4933087;29;20098;-64
2021/12/19 15:16:43;;;;;;;17.50;10.40;;;;;;;;;;4933298;29;20055;-63
2021/12/19 15:19:09;;;;;;;19.45;10.90;;;;;;;;;;4932972;29;20392;-63
2021/12/19 15:21:37;;;;;;;16.70;9.70;;;;;;;;;;4931648;29;20055;-66
2021/12/19 15:24:03;;;;;;;18.10;10.15;;;;;;;;;;4931740;29;20031;-66
2021/12/19 15:26:29;;;;;;;21.02;10.30;;;;;;;;;;4931228;29;20119;-66
2021/12/19 15:28:56;;;;;;;20.10;10.32;;;;;;;;;;4931521;29;20039;-63